< < Back
Terminal Aerodrome Forecast


Current Version              Previous Versions:   1  2  3  4  5  6  7  8  9  

Terminal Aerodrome Forecast

593
FTUS42 KTAE 210300 AAC
TAFDHN
TAF AMD
KDHN 210302Z 2103/2124 03006KT P6SM OVC008
     FM211000 06007KT P6SM OVC005
     FM211800 07005KT 6SM -RA OVC010=



Latest METAR

739
SAUS70 KWBC 210900 RRR
MTRDHN
METAR KDHN 210853Z AUTO 04008KT 8SM OVC008 12/10 A3015 RMK AO2 SLP209
T01170100 56002


USA.gov is the U.S. government's official web portal to all federal, state and local government web resources and services.